UAL1999 KEWR-KDEN
Flight info
| Callsign | UAL1999 |
|---|---|
| Flight time | N/A |
| Altitude | 36000 |
| Route | NEWEL J60 DJB CPONE/N0471F380 JOT J60 IOW OBH BRWRY LAWGR4 |
| Aircraft | B738/M-SDE2E3FGHIRWXY/LB1 |
Departure
| Time | 2026-05-06 14:54 |
|---|---|
| Airport | Newark Liberty International Airport (KEWR) |
Arrival
| Time | N/A |
|---|---|
| Airport | Denver International Airport (KDEN) |
| Time | Latitude | Longitude | Altitude | Speed | Heading |
|---|---|---|---|---|---|
| 2026-05-06 14:39 | 40.69605 | -74.17353 | 21 ft | 0 kts | 142° |
| 2026-05-06 14:47 | 40.69611 | -74.17359 | 21 ft | 4 kts | 142° |
| 2026-05-06 14:47 | 40.69632 | -74.17380 | 22 ft | 4 kts | 142° |
| 2026-05-06 14:48 | 40.69649 | -74.17397 | 22 ft | 4 kts | 131° |
| 2026-05-06 14:48 | 40.69656 | -74.17419 | 24 ft | 4 kts | 50° |
| 2026-05-06 14:48 | 40.69638 | -74.17442 | 23 ft | 3 kts | 41° |
| 2026-05-06 14:48 | 40.69636 | -74.17444 | 23 ft | 1 kts | 41° |
| 2026-05-06 14:50 | 40.69647 | -74.17432 | 22 ft | 6 kts | 40° |
| 2026-05-06 14:50 | 40.69700 | -74.17373 | 21 ft | 13 kts | 39° |
| 2026-05-06 14:51 | 40.69779 | -74.17315 | 21 ft | 13 kts | 46° |
| 2026-05-06 14:51 | 40.69772 | -74.17243 | 36 ft | 13 kts | 129° |
| 2026-05-06 14:51 | 40.69684 | -74.17155 | 21 ft | 19 kts | 149° |
| 2026-05-06 14:51 | 40.69611 | -74.17039 | 21 ft | 19 kts | 74° |
| 2026-05-06 14:52 | 40.69656 | -74.16874 | 21 ft | 18 kts | 69° |
| 2026-05-06 14:52 | 40.69714 | -74.16729 | 21 ft | 18 kts | 36° |
| 2026-05-06 14:52 | 40.69841 | -74.16646 | 20 ft | 22 kts | 23° |
| 2026-05-06 14:52 | 40.69976 | -74.16560 | 20 ft | 19 kts | 26° |
| 2026-05-06 14:53 | 40.70067 | -74.16449 | 19 ft | 20 kts | 86° |
| 2026-05-06 14:53 | 40.69959 | -74.16408 | 18 ft | 28 kts | 205° |
| 2026-05-06 14:53 | 40.69530 | -74.16679 | 24 ft | 108 kts | 204° |
| 2026-05-06 14:53 | 40.68650 | -74.17233 | 135 ft | 165 kts | 206° |
| 2026-05-06 14:54 | 40.67530 | -74.17954 | 814 ft | 189 kts | 206° |
| 2026-05-06 14:54 | 40.66277 | -74.18373 | 1768 ft | 189 kts | 184° |
| 2026-05-06 14:54 | 40.64955 | -74.18184 | 2567 ft | 190 kts | 178° |
| 2026-05-06 14:54 | 40.63647 | -74.17883 | 3291 ft | 188 kts | 183° |
| 2026-05-06 14:55 | 40.62408 | -74.18120 | 3943 ft | 179 kts | 205° |
| 2026-05-06 14:55 | 40.61240 | -74.18724 | 4630 ft | 182 kts | 210° |
| 2026-05-06 14:55 | 40.60306 | -74.19935 | 4903 ft | 208 kts | 244° |
| 2026-05-06 14:55 | 40.60037 | -74.21918 | 5386 ft | 235 kts | 266° |
| 2026-05-06 14:56 | 40.60447 | -74.24077 | 6283 ft | 251 kts | 282° |
| 2026-05-06 14:56 | 40.61158 | -74.26235 | 7183 ft | 262 kts | 287° |
| 2026-05-06 14:56 | 40.61981 | -74.28410 | 8097 ft | 268 kts | 286° |
| 2026-05-06 14:56 | 40.62761 | -74.30661 | 9012 ft | 272 kts | 286° |
| 2026-05-06 14:57 | 40.63553 | -74.32938 | 9822 ft | 276 kts | 286° |
| 2026-05-06 14:57 | 40.64366 | -74.35263 | 10447 ft | 286 kts | 286° |
| 2026-05-06 14:57 | 40.65225 | -74.37754 | 10647 ft | 312 kts | 286° |
| 2026-05-06 14:57 | 40.66154 | -74.40454 | 10839 ft | 335 kts | 287° |
| 2026-05-06 14:58 | 40.67148 | -74.43343 | 11002 ft | 357 kts | 287° |
| 2026-05-06 14:58 | 40.68203 | -74.46406 | 11159 ft | 376 kts | 287° |
| 2026-05-06 14:58 | 40.69299 | -74.49572 | 11626 ft | 383 kts | 288° |
| 2026-05-06 14:58 | 40.70410 | -74.52786 | 12317 ft | 386 kts | 288° |
| 2026-05-06 14:59 | 40.71518 | -74.56002 | 13131 ft | 384 kts | 287° |
| 2026-05-06 14:59 | 40.72622 | -74.59206 | 13857 ft | 384 kts | 287° |
| 2026-05-06 14:59 | 40.73727 | -74.62430 | 14414 ft | 388 kts | 287° |
| 2026-05-06 14:59 | 40.74840 | -74.65694 | 14987 ft | 392 kts | 287° |
| 2026-05-06 15:00 | 40.75960 | -74.68985 | 15546 ft | 394 kts | 287° |
| 2026-05-06 15:00 | 40.77081 | -74.72279 | 16118 ft | 394 kts | 288° |
| 2026-05-06 15:00 | 40.78209 | -74.75596 | 16602 ft | 398 kts | 288° |
| 2026-05-06 15:00 | 40.79342 | -74.78933 | 17068 ft | 400 kts | 288° |
| 2026-05-06 15:01 | 40.80482 | -74.82297 | 17527 ft | 402 kts | 288° |
| 2026-05-06 15:01 | 40.81611 | -74.85630 | 18006 ft | 404 kts | 288° |
| 2026-05-06 15:01 | 40.82760 | -74.89026 | 18415 ft | 406 kts | 288° |
| 2026-05-06 15:01 | 40.83914 | -74.92442 | 18804 ft | 408 kts | 288° |
| 2026-05-06 15:02 | 40.85071 | -74.95873 | 19201 ft | 410 kts | 288° |
| 2026-05-06 15:02 | 40.86232 | -74.99319 | 19589 ft | 411 kts | 288° |
| 2026-05-06 15:02 | 40.87364 | -75.02683 | 19911 ft | 414 kts | 288° |
| 2026-05-06 15:02 | 40.88537 | -75.06171 | 20288 ft | 416 kts | 288° |
| 2026-05-06 15:03 | 40.89711 | -75.09664 | 20719 ft | 415 kts | 288° |
| 2026-05-06 15:03 | 40.90782 | -75.13198 | 21094 ft | 411 kts | 281° |
| 2026-05-06 15:03 | 40.91224 | -75.16886 | 21421 ft | 406 kts | 269° |
| 2026-05-06 15:03 | 40.91167 | -75.20607 | 21762 ft | 404 kts | 262° |
| 2026-05-06 15:04 | 40.90606 | -75.24241 | 22065 ft | 404 kts | 251° |
| 2026-05-06 15:04 | 40.89721 | -75.27772 | 22377 ft | 406 kts | 251° |
| 2026-05-06 15:04 | 40.88853 | -75.31284 | 22647 ft | 409 kts | 251° |
| 2026-05-06 15:04 | 40.87988 | -75.34875 | 22936 ft | 411 kts | 252° |
| 2026-05-06 15:05 | 40.87130 | -75.38485 | 23242 ft | 412 kts | 252° |
| 2026-05-06 15:05 | 40.86271 | -75.42118 | 23508 ft | 414 kts | 252° |
| 2026-05-06 15:05 | 40.85414 | -75.45744 | 23895 ft | 412 kts | 252° |
| 2026-05-06 15:05 | 40.84559 | -75.49355 | 24205 ft | 412 kts | 253° |
| 2026-05-06 15:06 | 40.83700 | -75.52985 | 24376 ft | 416 kts | 253° |
| 2026-05-06 15:06 | 40.82832 | -75.56644 | 24588 ft | 418 kts | 253° |
| 2026-05-06 15:06 | 40.81962 | -75.60304 | 24850 ft | 419 kts | 253° |
| 2026-05-06 15:06 | 40.81089 | -75.63972 | 25097 ft | 419 kts | 253° |
| 2026-05-06 15:07 | 40.80211 | -75.67654 | 25338 ft | 420 kts | 253° |
| 2026-05-06 15:07 | 40.79332 | -75.71332 | 25556 ft | 421 kts | 253° |
| 2026-05-06 15:07 | 40.78448 | -75.75030 | 25770 ft | 422 kts | 253° |
| 2026-05-06 15:07 | 40.77562 | -75.78723 | 26033 ft | 421 kts | 253° |
| 2026-05-06 15:08 | 40.76684 | -75.82380 | 26438 ft | 416 kts | 253° |
| 2026-05-06 15:08 | 40.75812 | -75.86007 | 26831 ft | 413 kts | 253° |
| 2026-05-06 15:08 | 40.74946 | -75.89605 | 27175 ft | 411 kts | 253° |
| 2026-05-06 15:08 | 40.74080 | -75.93195 | 27449 ft | 411 kts | 253° |
| 2026-05-06 15:09 | 40.73215 | -75.96780 | 27763 ft | 410 kts | 253° |
| 2026-05-06 15:09 | 40.72382 | -76.00233 | 28073 ft | 408 kts | 254° |
| 2026-05-06 15:09 | 40.71522 | -76.03789 | 28429 ft | 407 kts | 253° |
| 2026-05-06 15:09 | 40.70661 | -76.07333 | 28784 ft | 405 kts | 254° |
| 2026-05-06 15:10 | 40.69805 | -76.10852 | 29187 ft | 402 kts | 254° |
| 2026-05-06 15:10 | 40.68952 | -76.14357 | 29578 ft | 400 kts | 254° |
| 2026-05-06 15:10 | 40.68111 | -76.17849 | 29949 ft | 399 kts | 255° |
| 2026-05-06 15:10 | 40.67580 | -76.21427 | 30263 ft | 397 kts | 263° |
| 2026-05-06 15:11 | 40.67390 | -76.25032 | 30664 ft | 393 kts | 267° |
| 2026-05-06 15:11 | 40.67409 | -76.28617 | 31088 ft | 390 kts | 272° |
| 2026-05-06 15:11 | 40.67769 | -76.32145 | 31455 ft | 389 kts | 278° |
| 2026-05-06 15:11 | 40.68294 | -76.35631 | 31791 ft | 386 kts | 278° |
| 2026-05-06 15:12 | 40.68826 | -76.39090 | 32145 ft | 383 kts | 278° |
| 2026-05-06 15:12 | 40.69353 | -76.42518 | 32565 ft | 380 kts | 278° |
| 2026-05-06 15:12 | 40.69870 | -76.45906 | 32985 ft | 376 kts | 278° |
| 2026-05-06 15:12 | 40.70378 | -76.49268 | 33374 ft | 373 kts | 278° |
| 2026-05-06 15:13 | 40.70879 | -76.52612 | 33619 ft | 373 kts | 278° |
| 2026-05-06 15:13 | 40.71881 | -76.59359 | 33904 ft | 375 kts | 278° |
| 2026-05-06 15:13 | 40.72372 | -76.62678 | 34204 ft | 371 kts | 278° |
| 2026-05-06 15:14 | 40.72863 | -76.66001 | 34534 ft | 367 kts | 278° |
| 2026-05-06 15:14 | 40.73348 | -76.69293 | 34827 ft | 364 kts | 278° |
| 2026-05-06 15:14 | 40.73829 | -76.72569 | 35064 ft | 363 kts | 278° |
| 2026-05-06 15:14 | 40.74306 | -76.75827 | 35311 ft | 361 kts | 278° |
| 2026-05-06 15:15 | 40.74781 | -76.79072 | 35572 ft | 359 kts | 278° |
| 2026-05-06 15:15 | 40.75252 | -76.82300 | 35833 ft | 357 kts | 278° |
| 2026-05-06 15:15 | 40.75720 | -76.85515 | 36101 ft | 355 kts | 278° |
| 2026-05-06 15:15 | 40.76184 | -76.88705 | 36317 ft | 354 kts | 278° |
| 2026-05-06 15:16 | 40.76645 | -76.91881 | 36537 ft | 352 kts | 278° |
| 2026-05-06 15:16 | 40.77103 | -76.95042 | 36763 ft | 350 kts | 278° |
| 2026-05-06 15:16 | 40.77558 | -76.98204 | 36921 ft | 350 kts | 278° |
| 2026-05-06 15:16 | 40.78000 | -77.01275 | 37087 ft | 349 kts | 278° |
| 2026-05-06 15:17 | 40.78453 | -77.04421 | 37232 ft | 349 kts | 278° |
| 2026-05-06 15:17 | 40.78905 | -77.07566 | 37374 ft | 348 kts | 278° |
| 2026-05-06 15:17 | 40.79355 | -77.10703 | 37548 ft | 347 kts | 278° |
| 2026-05-06 15:17 | 40.79802 | -77.13825 | 37764 ft | 345 kts | 278° |
| 2026-05-06 15:18 | 40.80246 | -77.16937 | 37786 ft | 346 kts | 278° |
| 2026-05-06 15:18 | 40.81125 | -77.23122 | 37805 ft | 344 kts | 277° |
| 2026-05-06 15:19 | 40.82005 | -77.29309 | 37817 ft | 342 kts | 277° |
| 2026-05-06 15:19 | 40.82875 | -77.35485 | 37802 ft | 341 kts | 277° |
| 2026-05-06 15:20 | 40.83740 | -77.41639 | 37795 ft | 340 kts | 277° |
| 2026-05-06 15:20 | 40.84595 | -77.47782 | 37799 ft | 339 kts | 277° |
| 2026-05-06 15:21 | 40.85437 | -77.53908 | 37788 ft | 339 kts | 277° |
| 2026-05-06 15:21 | 40.86279 | -77.60052 | 37826 ft | 340 kts | 277° |
| 2026-05-06 15:22 | 40.87114 | -77.66162 | 37809 ft | 340 kts | 277° |
| 2026-05-06 15:22 | 40.87954 | -77.72327 | 37807 ft | 341 kts | 277° |
| 2026-05-06 15:23 | 40.88795 | -77.78503 | 37790 ft | 342 kts | 277° |
| 2026-05-06 15:23 | 40.89634 | -77.84689 | 37820 ft | 342 kts | 277° |
| 2026-05-06 15:24 | 40.90467 | -77.90869 | 37833 ft | 342 kts | 277° |
| 2026-05-06 15:24 | 40.91296 | -77.97054 | 37829 ft | 341 kts | 276° |
| 2026-05-06 15:25 | 40.92091 | -78.03119 | 37822 ft | 342 kts | 276° |
| 2026-05-06 15:25 | 40.92867 | -78.09331 | 37818 ft | 342 kts | 276° |
| 2026-05-06 15:26 | 40.93638 | -78.15548 | 37799 ft | 343 kts | 276° |
| 2026-05-06 15:26 | 40.94412 | -78.21779 | 37807 ft | 343 kts | 276° |
| 2026-05-06 15:27 | 40.95183 | -78.28009 | 37815 ft | 343 kts | 276° |
| 2026-05-06 15:27 | 40.95952 | -78.34245 | 37812 ft | 343 kts | 276° |
| 2026-05-06 15:28 | 40.96717 | -78.40480 | 37818 ft | 343 kts | 276° |
| 2026-05-06 15:28 | 40.97475 | -78.46716 | 37813 ft | 343 kts | 276° |
| 2026-05-06 15:29 | 40.98222 | -78.52952 | 37813 ft | 343 kts | 276° |
| 2026-05-06 15:29 | 40.98962 | -78.59153 | 37812 ft | 343 kts | 276° |
| 2026-05-06 15:30 | 40.99702 | -78.65380 | 37806 ft | 342 kts | 276° |
| 2026-05-06 15:30 | 41.00437 | -78.71596 | 37813 ft | 342 kts | 276° |
| 2026-05-06 15:31 | 41.01170 | -78.77814 | 37830 ft | 341 kts | 276° |
| 2026-05-06 15:31 | 41.01896 | -78.84008 | 37824 ft | 340 kts | 276° |
| 2026-05-06 15:32 | 41.02975 | -78.93288 | 37825 ft | 340 kts | 275° |
| 2026-05-06 15:32 | 41.03691 | -78.99468 | 37834 ft | 340 kts | 275° |
| 2026-05-06 15:33 | 41.04396 | -79.05589 | 37840 ft | 340 kts | 275° |
| 2026-05-06 15:33 | 41.05103 | -79.11749 | 37833 ft | 340 kts | 275° |
| 2026-05-06 15:34 | 41.05811 | -79.17951 | 37840 ft | 340 kts | 275° |
| 2026-05-06 15:34 | 41.06516 | -79.24154 | 37843 ft | 340 kts | 275° |
| 2026-05-06 15:35 | 41.07217 | -79.30362 | 37838 ft | 341 kts | 275° |
| 2026-05-06 15:35 | 41.07915 | -79.36567 | 37840 ft | 341 kts | 275° |
| 2026-05-06 15:36 | 41.08611 | -79.42778 | 37905 ft | 340 kts | 275° |
| 2026-05-06 15:36 | 41.09303 | -79.48996 | 37862 ft | 341 kts | 275° |
| 2026-05-06 15:37 | 41.09991 | -79.55209 | 37848 ft | 340 kts | 275° |
| 2026-05-06 15:37 | 41.10676 | -79.61419 | 37863 ft | 340 kts | 275° |
| 2026-05-06 15:38 | 41.11242 | -79.66577 | 37861 ft | 340 kts | 275° |
| 2026-05-06 15:38 | 41.11918 | -79.72787 | 37872 ft | 340 kts | 275° |
| 2026-05-06 15:39 | 41.12592 | -79.78988 | 37876 ft | 340 kts | 275° |
| 2026-05-06 15:39 | 41.13265 | -79.85204 | 37881 ft | 341 kts | 274° |
| 2026-05-06 15:40 | 41.13931 | -79.91399 | 37882 ft | 341 kts | 274° |
| 2026-05-06 15:40 | 41.14600 | -79.97624 | 37871 ft | 341 kts | 274° |
| 2026-05-06 15:41 | 41.15254 | -80.03792 | 37902 ft | 341 kts | 274° |
| 2026-05-06 15:41 | 41.15915 | -80.10036 | 37893 ft | 342 kts | 274° |
| 2026-05-06 15:42 | 41.16572 | -80.16282 | 37905 ft | 342 kts | 274° |
| 2026-05-06 15:42 | 41.17223 | -80.22504 | 37915 ft | 342 kts | 274° |
| 2026-05-06 15:43 | 41.17875 | -80.28769 | 37912 ft | 342 kts | 274° |
| 2026-05-06 15:43 | 41.18524 | -80.35020 | 37907 ft | 342 kts | 274° |
| 2026-05-06 15:44 | 41.19167 | -80.41270 | 37908 ft | 342 kts | 274° |
| 2026-05-06 15:44 | 41.19809 | -80.47514 | 37913 ft | 342 kts | 274° |
| 2026-05-06 15:45 | 41.20450 | -80.53775 | 37919 ft | 341 kts | 274° |
| 2026-05-06 15:45 | 41.21089 | -80.60035 | 37913 ft | 342 kts | 274° |
| 2026-05-06 15:46 | 41.21723 | -80.66296 | 37905 ft | 342 kts | 274° |
| 2026-05-06 15:46 | 41.22351 | -80.72525 | 37896 ft | 342 kts | 274° |
| 2026-05-06 15:47 | 41.22981 | -80.78802 | 37892 ft | 343 kts | 274° |
| 2026-05-06 15:47 | 41.23607 | -80.85082 | 37897 ft | 343 kts | 274° |
| 2026-05-06 15:48 | 41.24230 | -80.91368 | 37922 ft | 342 kts | 274° |
| 2026-05-06 15:48 | 41.24845 | -80.97604 | 37929 ft | 342 kts | 274° |
| 2026-05-06 15:49 | 41.25453 | -81.03808 | 37926 ft | 342 kts | 274° |
| 2026-05-06 15:49 | 41.26065 | -81.10089 | 37933 ft | 343 kts | 274° |
| 2026-05-06 15:50 | 41.26674 | -81.16374 | 37937 ft | 343 kts | 274° |
| 2026-05-06 15:50 | 41.27280 | -81.22662 | 37935 ft | 343 kts | 273° |
| 2026-05-06 15:51 | 41.27882 | -81.28954 | 37958 ft | 343 kts | 273° |
| 2026-05-06 15:51 | 41.28482 | -81.35259 | 37944 ft | 344 kts | 273° |
| 2026-05-06 15:52 | 41.29081 | -81.41585 | 37931 ft | 345 kts | 273° |
| 2026-05-06 15:52 | 41.29676 | -81.47907 | 37934 ft | 345 kts | 273° |
| 2026-05-06 15:53 | 41.30269 | -81.54232 | 37933 ft | 344 kts | 273° |
| 2026-05-06 15:53 | 41.30849 | -81.60498 | 37926 ft | 343 kts | 273° |
| 2026-05-06 15:54 | 41.31422 | -81.66797 | 37942 ft | 343 kts | 273° |
| 2026-05-06 15:54 | 41.31992 | -81.73096 | 37929 ft | 343 kts | 273° |
| 2026-05-06 15:55 | 41.32558 | -81.79398 | 37940 ft | 344 kts | 273° |
| 2026-05-06 15:55 | 41.33125 | -81.85752 | 37916 ft | 346 kts | 273° |
| 2026-05-06 15:56 | 41.33691 | -81.92100 | 37920 ft | 344 kts | 273° |
| 2026-05-06 15:56 | 41.34250 | -81.98429 | 37929 ft | 344 kts | 273° |
| 2026-05-06 15:57 | 41.34798 | -82.04682 | 37951 ft | 344 kts | 273° |
| 2026-05-06 15:57 | 41.35349 | -82.10987 | 37953 ft | 343 kts | 273° |
| 2026-05-06 15:58 | 41.35885 | -82.17246 | 37956 ft | 342 kts | 272° |
| 2026-05-06 15:58 | 41.36281 | -82.23549 | 37953 ft | 341 kts | 271° |
| 2026-05-06 15:59 | 41.36633 | -82.29853 | 37954 ft | 341 kts | 271° |
| 2026-05-06 15:59 | 41.36989 | -82.36151 | 37954 ft | 341 kts | 271° |
| 2026-05-06 16:00 | 41.37349 | -82.42456 | 37958 ft | 342 kts | 271° |
| 2026-05-06 16:00 | 41.37711 | -82.48787 | 37956 ft | 343 kts | 271° |
| 2026-05-06 16:01 | 41.38071 | -82.55127 | 37951 ft | 343 kts | 271° |
| 2026-05-06 16:01 | 41.38428 | -82.61471 | 37953 ft | 344 kts | 271° |
| 2026-05-06 16:02 | 41.38783 | -82.67823 | 37950 ft | 344 kts | 271° |
| 2026-05-06 16:02 | 41.39132 | -82.74139 | 37956 ft | 344 kts | 271° |
| 2026-05-06 16:03 | 41.39480 | -82.80510 | 37968 ft | 346 kts | 270° |
| 2026-05-06 16:03 | 41.39827 | -82.86914 | 37959 ft | 347 kts | 270° |
| 2026-05-06 16:04 | 41.40171 | -82.93338 | 37953 ft | 348 kts | 270° |
| 2026-05-06 16:04 | 41.40512 | -82.99770 | 37954 ft | 349 kts | 270° |
| 2026-05-06 16:05 | 41.40847 | -83.06150 | 37956 ft | 349 kts | 270° |
| 2026-05-06 16:05 | 41.41182 | -83.12602 | 37954 ft | 349 kts | 270° |
| 2026-05-06 16:06 | 41.41514 | -83.19069 | 37964 ft | 350 kts | 270° |
| 2026-05-06 16:06 | 41.41843 | -83.25553 | 37959 ft | 351 kts | 270° |
| 2026-05-06 16:07 | 41.42169 | -83.32047 | 37961 ft | 351 kts | 270° |
| 2026-05-06 16:07 | 41.42490 | -83.38504 | 37961 ft | 352 kts | 270° |
| 2026-05-06 16:08 | 41.42809 | -83.45011 | 37959 ft | 352 kts | 270° |
| 2026-05-06 16:08 | 41.43125 | -83.51518 | 37960 ft | 352 kts | 270° |
| 2026-05-06 16:09 | 41.43437 | -83.58032 | 37967 ft | 352 kts | 270° |
| 2026-05-06 16:09 | 41.43745 | -83.64519 | 37964 ft | 353 kts | 270° |
| 2026-05-06 16:10 | 41.44050 | -83.71050 | 37962 ft | 353 kts | 270° |
| 2026-05-06 16:10 | 41.44353 | -83.77584 | 37963 ft | 353 kts | 270° |
| 2026-05-06 16:11 | 41.44651 | -83.84121 | 37960 ft | 353 kts | 270° |
| 2026-05-06 16:11 | 41.44946 | -83.90661 | 37963 ft | 353 kts | 270° |
| 2026-05-06 16:12 | 41.45238 | -83.97213 | 37972 ft | 353 kts | 270° |
| 2026-05-06 16:12 | 41.45522 | -84.03680 | 37971 ft | 353 kts | 270° |
| 2026-05-06 16:13 | 41.45804 | -84.10179 | 37974 ft | 353 kts | 270° |
| 2026-05-06 16:13 | 41.46084 | -84.16725 | 37975 ft | 353 kts | 270° |
| 2026-05-06 16:14 | 41.46361 | -84.23264 | 37983 ft | 353 kts | 270° |
| 2026-05-06 16:14 | 41.46633 | -84.29803 | 37998 ft | 353 kts | 270° |
| 2026-05-06 16:15 | 41.46902 | -84.36353 | 37989 ft | 354 kts | 270° |
| 2026-05-06 16:15 | 41.47167 | -84.42888 | 37999 ft | 355 kts | 270° |
| 2026-05-06 16:16 | 41.47431 | -84.49485 | 37996 ft | 356 kts | 270° |
| 2026-05-06 16:16 | 41.47691 | -84.56076 | 37998 ft | 356 kts | 270° |
| 2026-05-06 16:17 | 41.47947 | -84.62673 | 37995 ft | 356 kts | 270° |
| 2026-05-06 16:17 | 41.48200 | -84.69278 | 38003 ft | 357 kts | 270° |
| 2026-05-06 16:18 | 41.48448 | -84.75876 | 37998 ft | 359 kts | 270° |
| 2026-05-06 16:18 | 41.48695 | -84.82527 | 38004 ft | 359 kts | 270° |
| 2026-05-06 16:19 | 41.48938 | -84.89185 | 38005 ft | 360 kts | 270° |
| 2026-05-06 16:19 | 41.49178 | -84.95860 | 38003 ft | 360 kts | 269° |
| 2026-05-06 16:20 | 41.49411 | -85.02452 | 38007 ft | 360 kts | 269° |
| 2026-05-06 16:20 | 41.49644 | -85.09140 | 38017 ft | 361 kts | 269° |
| 2026-05-06 16:21 | 41.49873 | -85.15841 | 38007 ft | 362 kts | 269° |
| 2026-05-06 16:21 | 41.50097 | -85.22523 | 38004 ft | 363 kts | 269° |
| 2026-05-06 16:22 | 41.50320 | -85.29261 | 38006 ft | 363 kts | 269° |
| 2026-05-06 16:22 | 41.50539 | -85.35998 | 38004 ft | 363 kts | 269° |
| 2026-05-06 16:23 | 41.50754 | -85.42739 | 38033 ft | 364 kts | 269° |
| 2026-05-06 16:23 | 41.50965 | -85.49506 | 38020 ft | 365 kts | 269° |
| 2026-05-06 16:24 | 41.51173 | -85.56275 | 38013 ft | 365 kts | 269° |
| 2026-05-06 16:24 | 41.51376 | -85.63012 | 38015 ft | 366 kts | 269° |
| 2026-05-06 16:25 | 41.51577 | -85.69805 | 38018 ft | 366 kts | 269° |
| 2026-05-06 16:25 | 41.51773 | -85.76586 | 38020 ft | 366 kts | 269° |
| 2026-05-06 16:26 | 41.51933 | -85.82235 | 38015 ft | 366 kts | 269° |
| 2026-05-06 16:26 | 41.52123 | -85.89029 | 38018 ft | 366 kts | 269° |
| 2026-05-06 16:27 | 41.52309 | -85.95814 | 38017 ft | 366 kts | 269° |
| 2026-05-06 16:27 | 41.52488 | -86.02525 | 38017 ft | 366 kts | 269° |
| 2026-05-06 16:28 | 41.52632 | -86.09308 | 38004 ft | 366 kts | 269° |
| 2026-05-06 16:28 | 41.52749 | -86.16099 | 38006 ft | 366 kts | 268° |
| 2026-05-06 16:29 | 41.52863 | -86.22884 | 38016 ft | 366 kts | 269° |
| 2026-05-06 16:29 | 41.52977 | -86.29677 | 38032 ft | 366 kts | 269° |
| 2026-05-06 16:30 | 41.53070 | -86.35314 | 38021 ft | 365 kts | 269° |
| 2026-05-06 16:30 | 41.53196 | -86.43191 | 38023 ft | 365 kts | 268° |
| 2026-05-06 16:31 | 41.53299 | -86.49975 | 38018 ft | 365 kts | 268° |
| 2026-05-06 16:31 | 41.53399 | -86.56736 | 38040 ft | 365 kts | 268° |
| 2026-05-06 16:32 | 41.53494 | -86.63470 | 38028 ft | 365 kts | 268° |
| 2026-05-06 16:32 | 41.53586 | -86.70236 | 38017 ft | 364 kts | 268° |
| 2026-05-06 16:33 | 41.53674 | -86.77000 | 38017 ft | 364 kts | 268° |
| 2026-05-06 16:34 | 41.53798 | -86.87138 | 38023 ft | 364 kts | 268° |
| 2026-05-06 16:34 | 41.53876 | -86.93895 | 38021 ft | 364 kts | 268° |
| 2026-05-06 16:35 | 41.53948 | -87.00570 | 38039 ft | 364 kts | 268° |
| 2026-05-06 16:35 | 41.54018 | -87.07303 | 38040 ft | 364 kts | 268° |
| 2026-05-06 16:36 | 41.54085 | -87.14112 | 38027 ft | 365 kts | 268° |
| 2026-05-06 16:36 | 41.54147 | -87.20878 | 38023 ft | 364 kts | 268° |
| 2026-05-06 16:37 | 41.54204 | -87.27599 | 38024 ft | 364 kts | 268° |
| 2026-05-06 16:37 | 41.54258 | -87.34354 | 38030 ft | 364 kts | 268° |
| 2026-05-06 16:38 | 41.54309 | -87.41128 | 38020 ft | 364 kts | 268° |
| 2026-05-06 16:38 | 41.54355 | -87.47891 | 38027 ft | 364 kts | 268° |
| 2026-05-06 16:39 | 41.54397 | -87.54656 | 38027 ft | 364 kts | 268° |
| 2026-05-06 16:39 | 41.54435 | -87.61426 | 38027 ft | 364 kts | 268° |
| 2026-05-06 16:40 | 41.54470 | -87.68186 | 38027 ft | 364 kts | 268° |
| 2026-05-06 16:40 | 41.54500 | -87.74946 | 38036 ft | 364 kts | 268° |
| 2026-05-06 16:41 | 41.54527 | -87.81718 | 38025 ft | 364 kts | 268° |
| 2026-05-06 16:41 | 41.54549 | -87.88487 | 38034 ft | 364 kts | 268° |
| 2026-05-06 16:42 | 41.54568 | -87.95249 | 38035 ft | 364 kts | 268° |
| 2026-05-06 16:42 | 41.54582 | -88.01928 | 38036 ft | 364 kts | 268° |
| 2026-05-06 16:43 | 41.54593 | -88.08651 | 38029 ft | 362 kts | 268° |
| 2026-05-06 16:43 | 41.54599 | -88.15368 | 38050 ft | 361 kts | 268° |
| 2026-05-06 16:44 | 41.54603 | -88.22072 | 38046 ft | 360 kts | 268° |
| 2026-05-06 16:44 | 41.54602 | -88.28749 | 38047 ft | 360 kts | 268° |
| 2026-05-06 16:45 | 41.54611 | -88.35421 | 38041 ft | 359 kts | 268° |
| 2026-05-06 16:45 | 41.54651 | -88.42091 | 38042 ft | 359 kts | 268° |
| 2026-05-06 16:46 | 41.54691 | -88.48761 | 38040 ft | 359 kts | 268° |
| 2026-05-06 16:46 | 41.54724 | -88.55392 | 38033 ft | 359 kts | 268° |
| 2026-05-06 16:47 | 41.54751 | -88.62070 | 38031 ft | 360 kts | 268° |
| 2026-05-06 16:47 | 41.54775 | -88.68744 | 38035 ft | 360 kts | 268° |
| 2026-05-06 16:48 | 41.54794 | -88.75425 | 38039 ft | 360 kts | 268° |
| 2026-05-06 16:48 | 41.54809 | -88.82113 | 38036 ft | 360 kts | 268° |
| 2026-05-06 16:49 | 41.54821 | -88.88805 | 38037 ft | 361 kts | 268° |
| 2026-05-06 16:49 | 41.54828 | -88.95526 | 38043 ft | 363 kts | 268° |
| 2026-05-06 16:50 | 41.54832 | -89.02209 | 38039 ft | 364 kts | 267° |
| 2026-05-06 16:50 | 41.54832 | -89.08926 | 38047 ft | 364 kts | 267° |
| 2026-05-06 16:51 | 41.54829 | -89.15696 | 38041 ft | 365 kts | 267° |
| 2026-05-06 16:51 | 41.54821 | -89.22472 | 38045 ft | 365 kts | 267° |
| 2026-05-06 16:52 | 41.54810 | -89.29246 | 38050 ft | 365 kts | 267° |
| 2026-05-06 16:52 | 41.54793 | -89.36037 | 38051 ft | 365 kts | 267° |
| 2026-05-06 16:53 | 41.54769 | -89.42821 | 38052 ft | 365 kts | 267° |
| 2026-05-06 16:53 | 41.54742 | -89.49608 | 38057 ft | 365 kts | 267° |
| 2026-05-06 16:54 | 41.54710 | -89.56398 | 38063 ft | 365 kts | 267° |
| 2026-05-06 16:54 | 41.54675 | -89.63140 | 38060 ft | 365 kts | 267° |
| 2026-05-06 16:55 | 41.54637 | -89.69927 | 38062 ft | 365 kts | 267° |
| 2026-05-06 16:55 | 41.54594 | -89.76715 | 38059 ft | 365 kts | 267° |
| 2026-05-06 16:56 | 41.54547 | -89.83495 | 38058 ft | 365 kts | 267° |
| 2026-05-06 16:56 | 41.54496 | -89.90269 | 38061 ft | 365 kts | 267° |
| 2026-05-06 16:57 | 41.54442 | -89.96996 | 38060 ft | 365 kts | 267° |
| 2026-05-06 16:57 | 41.54384 | -90.03687 | 38062 ft | 365 kts | 267° |
| 2026-05-06 16:58 | 41.54321 | -90.10473 | 38063 ft | 366 kts | 267° |
| 2026-05-06 16:58 | 41.54254 | -90.17264 | 38066 ft | 366 kts | 267° |
| 2026-05-06 16:59 | 41.54183 | -90.24065 | 38069 ft | 366 kts | 267° |
| 2026-05-06 16:59 | 41.54109 | -90.30859 | 38072 ft | 366 kts | 266° |
| 2026-05-06 17:00 | 41.54030 | -90.37665 | 38077 ft | 366 kts | 266° |
| 2026-05-06 17:00 | 41.53947 | -90.44478 | 38086 ft | 367 kts | 266° |
| 2026-05-06 17:01 | 41.53861 | -90.51258 | 38086 ft | 368 kts | 266° |
| 2026-05-06 17:01 | 41.53769 | -90.58085 | 38085 ft | 368 kts | 266° |
| 2026-05-06 17:02 | 41.53674 | -90.64914 | 38086 ft | 368 kts | 266° |
| 2026-05-06 17:02 | 41.53575 | -90.71747 | 38083 ft | 368 kts | 266° |
| 2026-05-06 17:03 | 41.53471 | -90.78593 | 38083 ft | 369 kts | 266° |
| 2026-05-06 17:03 | 41.53364 | -90.85429 | 38079 ft | 369 kts | 266° |
| 2026-05-06 17:04 | 41.53252 | -90.92277 | 38083 ft | 369 kts | 266° |
| 2026-05-06 17:04 | 41.53136 | -90.99122 | 38085 ft | 369 kts | 266° |
| 2026-05-06 17:05 | 41.53018 | -91.05881 | 38079 ft | 369 kts | 266° |
| 2026-05-06 17:05 | 41.52894 | -91.12732 | 38090 ft | 369 kts | 266° |
| 2026-05-06 17:06 | 41.52766 | -91.19581 | 38108 ft | 370 kts | 266° |
| 2026-05-06 17:06 | 41.52634 | -91.26412 | 38109 ft | 371 kts | 266° |
| 2026-05-06 17:07 | 41.52497 | -91.33304 | 38112 ft | 372 kts | 266° |
| 2026-05-06 17:07 | 41.52356 | -91.40212 | 38114 ft | 372 kts | 266° |
| 2026-05-06 17:08 | 41.52210 | -91.47121 | 38118 ft | 372 kts | 266° |
| 2026-05-06 17:08 | 41.52062 | -91.54031 | 38120 ft | 373 kts | 266° |
| 2026-05-06 17:09 | 41.51908 | -91.60947 | 38120 ft | 373 kts | 266° |